Mattoon, Illinois
Current Conditions -  °F | °C
As of 5:53 AM on Friday 28 Nov 2014 (Local Time) from KMTO Reporting Station
Broken Clouds Broken Clouds  
Wind Chill:   Ceiling: 12000
Heat Index: 20°   Visibility: 10mi
Dew Point: 12°   Wind: 9mph
Humidity: 71%   Direction: 170°S
Pressure: 30.34"   Gusts: NA
Location:  39.48°N, 88.37°W
Report Text: KMTO 281153Z AUTO 17008KT 10SM SCT070 BKN120 M07/M11 A3034 RMK AO2 SLP285 T10671111 11067 21094 58018
Loading
Personal Weather Stations






























Interactive Weather Map New forecast layout! Learn more

10-Day Weather Forecast

Advertisements
Track Severe Weather on mobile